createdAt,value
2023-01-19T00:00:41.769Z,15.50
2023-01-19T00:03:16.318Z,17.70
2023-01-19T00:05:44.239Z,16.50
2023-01-19T00:08:17.796Z,14.60
2023-01-19T00:10:47.167Z,15.20
2023-01-19T00:13:15.207Z,17.40
2023-01-19T00:15:42.626Z,14.80
2023-01-19T00:18:11.132Z,16.00
2023-01-19T00:20:39.955Z,16.10
2023-01-19T00:23:08.584Z,16.00
2023-01-19T00:25:42.916Z,15.70
2023-01-19T00:28:14.645Z,17.30
2023-01-19T00:30:42.344Z,16.00
2023-01-19T00:33:10.095Z,17.50
2023-01-19T00:35:37.007Z,14.90
2023-01-19T00:38:03.904Z,16.80
2023-01-19T00:40:31.103Z,16.00
2023-01-19T00:42:58.794Z,17.90
2023-01-19T00:45:26.559Z,14.20
2023-01-19T00:48:02.929Z,16.30
2023-01-19T00:50:31.115Z,16.20
2023-01-19T00:52:58.456Z,16.00
2023-01-19T00:55:25.678Z,16.30
2023-01-19T00:57:52.603Z,16.30
2023-01-19T01:00:20.181Z,17.90
2023-01-19T01:02:48.580Z,16.00
2023-01-19T01:05:16.324Z,17.70
2023-01-19T01:07:45.587Z,17.10
2023-01-19T01:10:14.363Z,16.70
2023-01-19T01:12:42.036Z,15.40
2023-01-19T01:15:23.725Z,14.70
2023-01-19T01:17:53.195Z,15.40
2023-01-19T01:20:22.649Z,16.90
2023-01-19T01:22:51.613Z,13.50
2023-01-19T01:25:20.487Z,15.30
2023-01-19T01:27:47.821Z,13.60
2023-01-19T01:30:15.622Z,13.70
2023-01-19T01:32:43.075Z,16.20
2023-01-19T01:35:10.702Z,16.00
2023-01-19T01:37:38.342Z,14.40
2023-01-19T01:40:06.754Z,15.00
2023-01-19T01:42:35.639Z,15.10
2023-01-19T01:45:06.272Z,15.50
2023-01-19T01:47:44.979Z,15.10
2023-01-19T01:50:23.050Z,17.70
2023-01-19T01:53:07.606Z,14.00
2023-01-19T01:55:41.715Z,16.30
2023-01-19T01:58:09.122Z,16.60
2023-01-19T02:00:55.527Z,15.40
2023-01-19T02:03:23.191Z,15.00
2023-01-19T02:05:50.713Z,15.90
2023-01-19T02:08:39.477Z,15.60
2023-01-19T02:11:25.115Z,15.00
2023-01-19T02:13:52.469Z,15.80
2023-01-19T02:16:20.031Z,14.70
2023-01-19T02:18:47.701Z,13.60
2023-01-19T02:21:23.395Z,13.10
2023-01-19T02:23:57.475Z,15.70
2023-01-19T02:26:26.231Z,13.90
2023-01-19T02:29:04.557Z,13.80
2023-01-19T02:31:32.033Z,14.20
2023-01-19T02:34:00.411Z,13.90
2023-01-19T02:36:52.752Z,14.90
2023-01-19T02:39:31.200Z,12.50
2023-01-19T02:42:03.880Z,13.30
2023-01-19T02:44:31.350Z,15.30
2023-01-19T02:46:58.840Z,15.20
2023-01-19T02:49:28.324Z,15.50
2023-01-19T02:51:55.903Z,12.70
2023-01-19T02:54:46.146Z,15.10
2023-01-19T02:57:24.547Z,13.40
2023-01-19T03:00:10.982Z,14.30
2023-01-19T03:02:41.711Z,14.50
2023-01-19T03:05:25.384Z,14.20
2023-01-19T03:08:24.388Z,15.50
2023-01-19T03:11:11.398Z,14.40
2023-01-19T03:14:00.972Z,15.60
2023-01-19T03:16:38.412Z,15.40
2023-01-19T03:19:10.402Z,15.40
2023-01-19T03:21:38.175Z,15.90
2023-01-19T03:24:06.933Z,15.30
2023-01-19T03:26:39.529Z,15.60
2023-01-19T03:29:07.122Z,15.30
2023-01-19T03:31:34.553Z,13.80
2023-01-19T03:34:07.379Z,13.60
2023-01-19T03:36:42.750Z,16.60
2023-01-19T03:39:10.180Z,14.10
2023-01-19T03:41:37.855Z,16.70
2023-01-19T03:44:06.582Z,15.20
2023-01-19T03:46:34.032Z,15.10
2023-01-19T03:49:01.533Z,13.70
2023-01-19T03:51:29.051Z,14.20
2023-01-19T03:53:56.243Z,15.00
2023-01-19T03:56:24.980Z,13.20
2023-01-19T03:58:51.876Z,15.20
2023-01-19T04:01:23.201Z,14.90
2023-01-19T04:03:51.302Z,13.30
2023-01-19T04:06:19.581Z,14.30
2023-01-19T04:08:50.793Z,12.80
2023-01-19T04:11:18.438Z,13.40
2023-01-19T04:13:45.828Z,13.40
2023-01-19T04:16:13.441Z,13.90
2023-01-19T04:18:40.854Z,14.40
2023-01-19T04:21:08.357Z,13.80
2023-01-19T04:23:35.967Z,12.10
2023-01-19T04:26:05.634Z,12.40
2023-01-19T04:28:33.255Z,12.50
2023-01-19T04:31:01.318Z,12.70
2023-01-19T04:33:29.075Z,12.40
2023-01-19T04:35:56.610Z,12.20
2023-01-19T04:38:25.152Z,11.80
2023-01-19T04:40:53.160Z,13.40
2023-01-19T04:43:21.463Z,11.70
2023-01-19T04:45:49.456Z,13.10
2023-01-19T04:48:18.704Z,11.80
2023-01-19T04:50:46.891Z,11.90
2023-01-19T04:53:14.823Z,11.60
2023-01-19T04:55:42.460Z,11.70
2023-01-19T04:58:10.159Z,12.50
2023-01-19T05:00:37.653Z,12.00
2023-01-19T05:03:05.508Z,11.00
2023-01-19T05:05:33.641Z,11.20
2023-01-19T05:08:01.048Z,10.90
2023-01-19T05:10:28.748Z,10.40
2023-01-19T05:12:56.458Z,12.10
2023-01-19T05:15:24.095Z,10.80
2023-01-19T05:17:51.644Z,11.60
2023-01-19T05:20:19.334Z,11.00
2023-01-19T05:22:50.738Z,11.40
2023-01-19T05:25:18.161Z,10.10
2023-01-19T08:47:33.159Z,7.30
2023-01-19T08:50:00.622Z,8.10
2023-01-19T08:52:29.630Z,7.70
2023-01-19T08:54:56.990Z,9.90
2023-01-19T08:57:24.637Z,8.00
2023-01-19T08:59:52.376Z,8.20
2023-01-19T09:02:19.963Z,8.40
2023-01-19T09:04:47.685Z,9.10
2023-01-19T09:07:15.245Z,8.50
2023-01-19T09:09:43.733Z,9.20
2023-01-19T09:12:11.180Z,8.00
2023-01-19T09:14:38.728Z,9.00
2023-01-19T09:17:06.786Z,10.00
2023-01-19T09:19:35.138Z,7.80
2023-01-19T09:22:02.727Z,8.70
2023-01-19T09:24:30.371Z,8.80
2023-01-19T09:26:57.797Z,7.90
2023-01-19T09:29:25.179Z,8.30
2023-01-19T09:31:52.596Z,8.10
2023-01-19T09:34:20.873Z,8.20
2023-01-19T09:36:48.364Z,8.40
2023-01-19T09:39:16.306Z,10.00
2023-01-19T09:41:47.067Z,8.60
2023-01-19T09:44:20.373Z,9.00
2023-01-19T09:46:49.115Z,8.60
2023-01-19T09:49:20.283Z,9.10
2023-01-19T09:51:48.873Z,9.50
2023-01-19T09:54:24.526Z,9.30
2023-01-19T09:56:53.448Z,8.70
2023-01-19T09:59:29.483Z,9.70
2023-01-19T10:02:18.753Z,10.00
2023-01-19T10:05:03.196Z,8.00
2023-01-19T10:07:44.310Z,10.50
2023-01-19T10:10:25.213Z,9.30
2023-01-19T10:13:10.813Z,9.10
2023-01-19T10:15:45.349Z,9.90
2023-01-19T10:18:18.030Z,9.50
2023-01-19T10:20:51.475Z,9.10
2023-01-19T10:23:21.948Z,8.00
2023-01-19T10:25:49.887Z,9.20
2023-01-19T10:28:17.333Z,9.20
2023-01-19T10:30:44.999Z,10.10
2023-01-19T10:33:13.926Z,8.60
2023-01-19T10:35:41.187Z,8.10
2023-01-19T10:38:09.881Z,9.20
2023-01-19T10:40:48.078Z,10.00
2023-01-19T10:43:35.051Z,8.40
2023-01-19T10:46:06.509Z,8.80
2023-01-19T10:48:39.392Z,7.70
2023-01-19T10:51:06.860Z,7.30
2023-01-19T10:53:34.421Z,7.10
2023-01-19T10:56:12.107Z,9.00
2023-01-19T10:58:40.762Z,8.30
2023-01-19T11:01:30.148Z,7.80
2023-01-19T11:04:05.828Z,7.40
2023-01-19T11:06:35.458Z,7.60
2023-01-19T11:09:16.746Z,7.60
2023-01-19T11:11:49.753Z,8.00
2023-01-19T11:14:24.656Z,7.30
2023-01-19T11:16:55.135Z,6.90
2023-01-19T11:19:31.751Z,5.70
2023-01-19T11:22:33.300Z,6.30
2023-01-19T11:25:02.306Z,6.50
2023-01-19T11:27:30.359Z,5.50
2023-01-19T11:30:19.384Z,6.40
2023-01-19T11:32:46.803Z,5.20
2023-01-19T11:35:37.811Z,5.50
2023-01-19T11:38:18.545Z,6.30
2023-01-19T11:40:56.818Z,7.30
2023-01-19T11:43:36.642Z,5.90
2023-01-19T11:46:15.185Z,7.80
2023-01-19T11:48:57.115Z,7.40
2023-01-19T11:51:25.703Z,11.10
2023-01-19T11:53:53.863Z,7.20
2023-01-19T11:56:26.366Z,6.90
2023-01-19T11:58:53.761Z,8.50
2023-01-19T12:01:32.867Z,6.80
2023-01-19T12:04:32.293Z,6.80
2023-01-19T12:07:00.615Z,6.70
2023-01-19T12:09:36.465Z,7.10
2023-01-19T12:12:06.293Z,5.90
2023-01-19T12:14:59.103Z,7.20
2023-01-19T12:19:59.872Z,6.70
2023-01-19T12:22:28.926Z,6.50
2023-01-19T12:25:01.565Z,6.20
2023-01-19T12:27:43.674Z,6.90
2023-01-19T12:30:17.717Z,7.30
2023-01-19T12:32:45.242Z,6.30
2023-01-19T12:35:50.739Z,5.40
2023-01-19T12:39:10.583Z,6.10
2023-01-19T12:41:38.983Z,6.70
2023-01-19T12:44:12.556Z,6.10
2023-01-19T12:46:50.820Z,4.80
2023-01-19T12:49:23.029Z,6.70
2023-01-19T12:51:51.961Z,6.00
2023-01-19T12:54:31.822Z,6.40
2023-01-19T12:57:01.920Z,6.50
2023-01-19T12:59:29.563Z,7.00
2023-01-19T13:02:22.482Z,7.50
2023-01-19T13:08:17.119Z,9.30
2023-01-19T13:10:56.497Z,6.00
2023-01-19T13:13:25.923Z,7.40
2023-01-19T13:15:55.900Z,6.80
2023-01-19T13:18:24.618Z,6.80
2023-01-19T13:21:06.094Z,7.70
2023-01-19T13:23:51.842Z,13.20
2023-01-19T13:26:21.096Z,7.60
2023-01-19T13:29:17.566Z,6.00
2023-01-19T13:31:47.588Z,8.70
2023-01-19T13:34:26.543Z,6.80
2023-01-19T13:36:56.906Z,7.70
2023-01-19T13:39:38.623Z,7.70
2023-01-19T13:42:13.465Z,6.70
2023-01-19T13:44:52.855Z,9.30
2023-01-19T13:47:44.461Z,8.00
2023-01-19T13:50:26.655Z,7.50
2023-01-19T13:52:55.870Z,8.70
2023-01-19T13:55:24.887Z,8.50
2023-01-19T13:57:57.390Z,7.30
2023-01-19T14:00:30.555Z,7.60
2023-01-19T14:03:19.585Z,8.70
2023-01-19T14:05:50.528Z,16.10
2023-01-19T14:08:18.710Z,8.70
2023-01-19T14:10:56.840Z,8.90
2023-01-19T14:13:34.948Z,10.00
2023-01-19T14:16:08.336Z,9.00
2023-01-19T14:18:36.200Z,9.20
2023-01-19T14:21:07.993Z,9.30
2023-01-19T14:23:49.473Z,8.00
2023-01-19T14:26:47.261Z,10.20
2023-01-19T14:29:32.866Z,9.20
2023-01-19T14:32:01.475Z,9.30
2023-01-19T14:35:04.537Z,8.60
2023-01-19T14:37:36.634Z,9.10
2023-01-19T14:40:15.147Z,9.30
2023-01-19T14:42:50.443Z,9.40
2023-01-19T14:45:31.542Z,8.90
2023-01-19T14:48:01.059Z,9.10
2023-01-19T14:50:37.135Z,9.30
2023-01-19T14:53:28.829Z,8.40
2023-01-19T14:55:59.501Z,10.10
2023-01-19T14:58:28.079Z,9.40
2023-01-19T15:00:56.341Z,9.00
2023-01-19T15:03:34.893Z,14.90
2023-01-19T15:06:13.958Z,10.20
2023-01-19T15:08:41.458Z,10.70
2023-01-19T15:11:16.057Z,10.10
2023-01-19T15:13:43.925Z,10.80
2023-01-19T15:16:11.490Z,9.30
2023-01-19T15:18:39.189Z,9.20
2023-01-19T15:21:06.802Z,10.20
2023-01-19T15:23:34.333Z,10.50
2023-01-19T15:26:04.490Z,10.00
2023-01-19T15:28:32.037Z,10.60
2023-01-19T15:31:00.051Z,9.70
2023-01-19T15:33:30.806Z,9.90
2023-01-19T15:35:58.443Z,11.90
2023-01-19T15:38:26.790Z,10.20
2023-01-19T15:40:54.331Z,11.70
2023-01-19T15:43:21.880Z,12.20
2023-01-19T15:46:02.689Z,15.60
2023-01-19T15:48:30.145Z,15.60
2023-01-19T15:50:58.032Z,16.90
2023-01-19T15:53:27.453Z,17.60
2023-01-19T15:55:57.040Z,14.20
2023-01-19T15:58:24.787Z,12.40
2023-01-19T16:00:59.020Z,12.80
2023-01-19T16:03:26.604Z,15.90
2023-01-19T16:05:54.363Z,12.90
2023-01-19T16:08:22.224Z,13.70
2023-01-19T16:10:49.611Z,13.90
2023-01-19T16:13:17.016Z,15.80
2023-01-19T16:15:44.540Z,28.80
2023-01-19T16:18:14.630Z,15.20
2023-01-19T16:20:42.356Z,14.30
2023-01-19T16:23:16.767Z,14.30
2023-01-19T16:25:44.528Z,13.50
2023-01-19T16:28:12.193Z,13.70
2023-01-19T16:30:39.754Z,13.50
2023-01-19T16:33:08.601Z,12.90
2023-01-19T16:35:36.056Z,13.90
2023-01-19T16:38:03.582Z,13.30
2023-01-19T16:40:31.228Z,13.70
2023-01-19T16:42:58.660Z,13.80
2023-01-19T16:45:26.257Z,14.30
2023-01-19T16:47:53.656Z,14.00
2023-01-19T16:50:21.267Z,14.80
2023-01-19T16:52:50.942Z,15.10
2023-01-19T16:55:18.639Z,15.90
2023-01-19T16:57:46.200Z,13.40
2023-01-19T17:00:14.189Z,14.90
2023-01-19T17:02:43.453Z,13.90
2023-01-19T17:05:11.212Z,14.20
2023-01-19T17:07:39.068Z,16.70
2023-01-19T17:10:07.669Z,17.40
2023-01-19T17:12:35.102Z,18.00
2023-01-19T17:15:02.611Z,15.80
2023-01-19T17:17:30.381Z,15.30
2023-01-19T17:20:00.268Z,16.80
2023-01-19T17:22:27.813Z,13.70
2023-01-19T17:24:55.517Z,15.40
2023-01-19T17:27:23.133Z,16.50
2023-01-19T17:29:50.588Z,15.40
2023-01-19T17:32:18.039Z,14.90
2023-01-19T17:34:47.173Z,14.70
2023-01-19T17:37:14.733Z,16.40
2023-01-19T17:39:42.269Z,13.70
2023-01-19T17:42:10.415Z,15.30
2023-01-19T17:44:38.077Z,15.00
2023-01-19T17:47:05.677Z,15.20
2023-01-19T17:49:33.643Z,15.10
2023-01-19T17:52:01.323Z,15.60
2023-01-19T17:54:28.865Z,14.30
2023-01-19T17:56:56.593Z,15.90
2023-01-19T17:59:23.998Z,17.10
2023-01-19T18:01:51.631Z,16.30
2023-01-19T18:04:19.293Z,16.00
2023-01-19T18:06:47.636Z,13.10
2023-01-19T18:09:15.190Z,16.10
2023-01-19T18:11:43.317Z,15.90
2023-01-19T18:14:10.849Z,16.60
2023-01-19T18:16:38.632Z,15.70
2023-01-19T18:19:06.119Z,16.40
2023-01-19T18:21:33.847Z,16.50
2023-01-19T18:24:03.702Z,16.20
2023-01-19T18:26:32.174Z,16.80
2023-01-19T18:29:00.762Z,16.50
2023-01-19T18:31:28.472Z,15.70
2023-01-19T18:33:56.414Z,50.70
2023-01-19T18:36:24.130Z,17.20
2023-01-19T18:38:51.766Z,16.60
2023-01-19T18:41:20.550Z,14.50
2023-01-19T18:43:48.759Z,16.10
2023-01-19T18:46:16.881Z,15.90
2023-01-19T18:48:44.513Z,15.70
2023-01-19T18:51:13.770Z,16.90
2023-01-19T18:53:41.315Z,16.60
2023-01-19T18:56:10.546Z,16.30
2023-01-19T18:58:38.499Z,15.10
2023-01-19T19:01:17.528Z,17.10
2023-01-19T19:03:45.309Z,16.50
2023-01-19T19:06:13.581Z,17.00
2023-01-19T19:08:41.381Z,17.30
2023-01-19T19:11:09.137Z,17.10
2023-01-19T19:13:36.992Z,16.90
2023-01-19T19:16:05.966Z,15.70
2023-01-19T19:18:37.528Z,14.70
2023-01-19T19:21:07.406Z,15.50
2023-01-19T19:23:35.166Z,16.50
2023-01-19T19:26:07.193Z,14.90
2023-01-19T19:28:36.780Z,16.50
2023-01-19T19:31:12.475Z,17.80
2023-01-19T19:33:40.325Z,16.50
2023-01-19T19:36:08.313Z,15.60
2023-01-19T19:38:37.180Z,14.90
2023-01-19T19:41:06.220Z,15.90
2023-01-19T19:43:34.296Z,17.00
2023-01-19T19:46:09.863Z,16.90
2023-01-19T19:48:39.297Z,16.40
2023-01-19T19:51:17.958Z,18.70
2023-01-19T19:53:48.414Z,17.40
2023-01-19T19:56:20.299Z,16.60
2023-01-19T19:58:48.086Z,17.70
2023-01-19T20:01:17.509Z,16.30
2023-01-19T20:03:45.709Z,17.60
2023-01-19T20:06:18.371Z,17.60
2023-01-19T20:08:45.810Z,17.40
2023-01-19T20:11:15.604Z,19.20
2023-01-19T20:13:43.900Z,17.30
2023-01-19T20:16:14.164Z,29.90
2023-01-19T20:18:43.241Z,17.60
2023-01-19T20:21:19.066Z,16.40
2023-01-19T20:23:47.071Z,18.90
2023-01-19T20:26:16.073Z,17.50
2023-01-19T20:28:43.808Z,19.90
2023-01-19T20:31:15.797Z,20.00
2023-01-19T20:33:43.893Z,20.20
2023-01-19T20:36:12.073Z,18.10
2023-01-19T20:38:40.090Z,18.60
2023-01-19T20:41:08.237Z,18.90
2023-01-19T20:43:36.618Z,17.50
2023-01-19T20:46:04.593Z,18.60
2023-01-19T20:48:32.181Z,19.10
2023-01-19T20:51:01.218Z,18.60
2023-01-19T20:53:29.081Z,19.80
2023-01-19T20:55:56.728Z,20.70
2023-01-19T20:58:25.192Z,22.10
2023-01-19T21:00:52.687Z,21.00
2023-01-19T21:03:20.569Z,20.10
2023-01-19T21:05:51.199Z,19.90
2023-01-19T21:08:18.717Z,23.10
2023-01-19T21:10:46.387Z,20.30
2023-01-19T21:13:14.473Z,20.20
2023-01-19T21:15:42.040Z,20.70
2023-01-19T21:18:09.758Z,19.50
2023-01-19T21:20:37.935Z,20.50
2023-01-19T21:23:05.618Z,21.50
2023-01-19T21:25:34.192Z,19.30
2023-01-19T21:28:02.149Z,20.90
2023-01-19T21:30:30.154Z,21.10
2023-01-19T21:32:57.972Z,20.80
2023-01-19T21:35:25.674Z,20.40
2023-01-19T21:37:53.443Z,22.80
2023-01-19T21:40:21.082Z,22.00
2023-01-19T21:42:48.708Z,22.00
2023-01-19T21:45:16.335Z,21.50
2023-01-19T21:47:43.947Z,23.50
2023-01-19T21:50:11.608Z,18.50
2023-01-19T21:52:41.976Z,19.70
2023-01-19T21:55:09.711Z,18.40
2023-01-19T21:57:37.248Z,21.50
2023-01-19T22:00:06.683Z,22.20
2023-01-19T22:02:38.837Z,22.60
2023-01-19T22:05:07.092Z,22.10
2023-01-19T22:07:34.316Z,21.10
2023-01-19T22:10:01.821Z,23.50
2023-01-19T22:12:29.456Z,21.30
2023-01-19T22:14:56.837Z,22.00
2023-01-19T22:17:24.249Z,22.10
2023-01-19T22:19:51.663Z,23.50
2023-01-19T22:22:19.060Z,21.90
2023-01-19T22:24:50.068Z,22.40
2023-01-19T22:27:17.468Z,22.20
2023-01-19T22:29:44.864Z,21.00
2023-01-19T22:32:12.374Z,21.70
2023-01-19T22:34:39.737Z,21.10
2023-01-19T22:37:07.123Z,22.10
2023-01-19T22:39:34.781Z,22.80
2023-01-19T22:42:02.309Z,21.80
2023-01-19T22:44:29.688Z,23.90
2023-01-19T22:46:57.244Z,20.50
2023-01-19T22:49:24.566Z,22.00
2023-01-19T22:51:54.228Z,23.80
2023-01-19T22:54:23.204Z,21.80
2023-01-19T22:56:50.733Z,19.90
2023-01-19T22:59:18.204Z,20.10
2023-01-19T23:01:45.965Z,22.90
2023-01-19T23:04:15.115Z,22.40
2023-01-19T23:06:42.988Z,20.40
2023-01-19T23:09:12.118Z,21.20
2023-01-19T23:11:41.097Z,20.70
2023-01-19T23:14:10.039Z,20.40
2023-01-19T23:16:37.547Z,19.70
2023-01-19T23:19:05.183Z,19.00
2023-01-19T23:21:32.779Z,20.90
2023-01-19T23:24:01.662Z,22.90
2023-01-19T23:26:31.023Z,21.20
2023-01-19T23:29:01.390Z,21.60
2023-01-19T23:31:30.918Z,21.80
2023-01-19T23:34:02.732Z,20.50
2023-01-19T23:36:31.502Z,22.50
2023-01-19T23:39:00.277Z,19.70
2023-01-19T23:41:30.947Z,19.90
2023-01-19T23:43:58.448Z,20.90
2023-01-19T23:46:25.965Z,20.50
2023-01-19T23:48:53.630Z,21.10
2023-01-19T23:51:25.504Z,22.60
2023-01-19T23:53:52.863Z,22.00
2023-01-19T23:56:34.649Z,23.40
2023-01-19T23:59:04.409Z,20.50
